sensor_id;sensor_type;location;lat;lon;timestamp;temperature;humidity
31263;DHT22;17892;52.080;9.006;2023-05-07T00:00:22;13.00;99.90
31263;DHT22;17892;52.080;9.006;2023-05-07T00:02:48;13.00;99.90
31263;DHT22;17892;52.080;9.006;2023-05-07T00:05:13;12.90;99.90
31263;DHT22;17892;52.080;9.006;2023-05-07T00:07:39;12.90;99.90
31263;DHT22;17892;52.080;9.006;2023-05-07T00:10:06;12.90;99.90
31263;DHT22;17892;52.080;9.006;2023-05-07T00:12:32;12.90;99.90
31263;DHT22;17892;52.080;9.006;2023-05-07T00:15:00;12.90;99.90
31263;DHT22;17892;52.080;9.006;2023-05-07T00:17:27;13.00;99.90
31263;DHT22;17892;52.080;9.006;2023-05-07T00:19:53;12.80;99.90
31263;DHT22;17892;52.080;9.006;2023-05-07T00:22:18;12.80;99.90
31263;DHT22;17892;52.080;9.006;2023-05-07T00:24:44;12.80;99.90
31263;DHT22;17892;52.080;9.006;2023-05-07T00:27:10;12.80;99.90
31263;DHT22;17892;52.080;9.006;2023-05-07T00:29:35;12.70;99.90
31263;DHT22;17892;52.080;9.006;2023-05-07T00:32:02;12.80;99.90
31263;DHT22;17892;52.080;9.006;2023-05-07T00:34:27;12.70;99.90
31263;DHT22;17892;52.080;9.006;2023-05-07T00:36:53;12.70;99.90
31263;DHT22;17892;52.080;9.006;2023-05-07T00:39:18;12.60;99.90
31263;DHT22;17892;52.080;9.006;2023-05-07T00:41:44;12.60;99.90
31263;DHT22;17892;52.080;9.006;2023-05-07T00:44:11;12.60;99.90
31263;DHT22;17892;52.080;9.006;2023-05-07T00:46:37;12.60;99.90
31263;DHT22;17892;52.080;9.006;2023-05-07T00:49:03;12.60;99.90
31263;DHT22;17892;52.080;9.006;2023-05-07T00:51:30;12.60;99.90
31263;DHT22;17892;52.080;9.006;2023-05-07T00:53:56;12.60;99.90
31263;DHT22;17892;52.080;9.006;2023-05-07T00:56:22;12.60;99.90
31263;DHT22;17892;52.080;9.006;2023-05-07T00:58:49;12.60;99.90
31263;DHT22;17892;52.080;9.006;2023-05-07T01:01:14;12.60;99.90
31263;DHT22;17892;52.080;9.006;2023-05-07T01:03:43;12.60;99.90
31263;DHT22;17892;52.080;9.006;2023-05-07T01:06:10;12.60;99.90
31263;DHT22;17892;52.080;9.006;2023-05-07T01:08:38;12.60;99.90
31263;DHT22;17892;52.080;9.006;2023-05-07T01:11:06;12.60;99.90
31263;DHT22;17892;52.080;9.006;2023-05-07T01:13:32;12.60;99.90
31263;DHT22;17892;52.080;9.006;2023-05-07T01:15:59;12.50;99.90
31263;DHT22;17892;52.080;9.006;2023-05-07T01:18:25;12.50;99.90
31263;DHT22;17892;52.080;9.006;2023-05-07T01:20:52;12.60;99.90
31263;DHT22;17892;52.080;9.006;2023-05-07T01:23:18;12.60;99.90
31263;DHT22;17892;52.080;9.006;2023-05-07T01:25:54;12.60;99.90
31263;DHT22;17892;52.080;9.006;2023-05-07T01:28:20;12.50;99.90
31263;DHT22;17892;52.080;9.006;2023-05-07T01:30:52;12.60;99.90
31263;DHT22;17892;52.080;9.006;2023-05-07T01:33:21;12.60;99.90
31263;DHT22;17892;52.080;9.006;2023-05-07T01:35:49;12.60;99.90
31263;DHT22;17892;52.080;9.006;2023-05-07T01:38:17;12.60;99.90
31263;DHT22;17892;52.080;9.006;2023-05-07T01:40:43;12.60;99.90
31263;DHT22;17892;52.080;9.006;2023-05-07T01:43:09;12.60;99.90
31263;DHT22;17892;52.080;9.006;2023-05-07T01:45:36;12.50;99.90
31263;DHT22;17892;52.080;9.006;2023-05-07T01:48:03;12.50;99.90
31263;DHT22;17892;52.080;9.006;2023-05-07T01:50:30;12.50;99.90
31263;DHT22;17892;52.080;9.006;2023-05-07T01:52:57;12.50;99.90
31263;DHT22;17892;52.080;9.006;2023-05-07T01:55:22;12.50;99.90
31263;DHT22;17892;52.080;9.006;2023-05-07T01:57:48;12.50;99.90
31263;DHT22;17892;52.080;9.006;2023-05-07T02:00:14;12.40;99.90
31263;DHT22;17892;52.080;9.006;2023-05-07T02:02:40;12.40;99.90
31263;DHT22;17892;52.080;9.006;2023-05-07T02:05:06;12.40;99.90
31263;DHT22;17892;52.080;9.006;2023-05-07T02:07:32;12.40;99.90
31263;DHT22;17892;52.080;9.006;2023-05-07T02:09:58;12.40;99.90
31263;DHT22;17892;52.080;9.006;2023-05-07T02:12:24;12.40;99.90
31263;DHT22;17892;52.080;9.006;2023-05-07T02:14:49;12.40;99.90
31263;DHT22;17892;52.080;9.006;2023-05-07T02:17:15;12.40;99.90
31263;DHT22;17892;52.080;9.006;2023-05-07T02:19:41;12.40;99.90
31263;DHT22;17892;52.080;9.006;2023-05-07T02:22:07;12.40;99.90
31263;DHT22;17892;52.080;9.006;2023-05-07T02:24:33;12.50;99.90
31263;DHT22;17892;52.080;9.006;2023-05-07T02:26:58;12.40;99.90
31263;DHT22;17892;52.080;9.006;2023-05-07T02:29:24;12.40;99.90
31263;DHT22;17892;52.080;9.006;2023-05-07T02:31:49;12.40;99.90
31263;DHT22;17892;52.080;9.006;2023-05-07T02:34:16;12.40;99.90
31263;DHT22;17892;52.080;9.006;2023-05-07T02:36:43;12.40;99.90
31263;DHT22;17892;52.080;9.006;2023-05-07T02:39:08;12.40;99.90
31263;DHT22;17892;52.080;9.006;2023-05-07T02:41:34;12.40;99.90
31263;DHT22;17892;52.080;9.006;2023-05-07T02:44:00;12.40;99.90
31263;DHT22;17892;52.080;9.006;2023-05-07T02:46:25;12.40;99.90
31263;DHT22;17892;52.080;9.006;2023-05-07T02:48:51;12.40;99.90
31263;DHT22;17892;52.080;9.006;2023-05-07T02:51:21;12.30;99.90
31263;DHT22;17892;52.080;9.006;2023-05-07T02:53:47;12.30;99.90
31263;DHT22;17892;52.080;9.006;2023-05-07T02:56:13;12.40;99.90
31263;DHT22;17892;52.080;9.006;2023-05-07T02:58:39;12.20;99.90
31263;DHT22;17892;52.080;9.006;2023-05-07T03:01:05;12.20;99.90
31263;DHT22;17892;52.080;9.006;2023-05-07T03:03:31;12.20;99.90
31263;DHT22;17892;52.080;9.006;2023-05-07T03:05:57;12.20;99.90
31263;DHT22;17892;52.080;9.006;2023-05-07T03:08:23;12.10;99.90
31263;DHT22;17892;52.080;9.006;2023-05-07T03:10:49;12.10;99.90
31263;DHT22;17892;52.080;9.006;2023-05-07T03:13:15;12.10;99.90
31263;DHT22;17892;52.080;9.006;2023-05-07T03:15:41;12.10;99.90
31263;DHT22;17892;52.080;9.006;2023-05-07T03:18:06;12.10;99.90
31263;DHT22;17892;52.080;9.006;2023-05-07T03:20:32;12.10;99.90
31263;DHT22;17892;52.080;9.006;2023-05-07T03:22:58;12.20;99.90
31263;DHT22;17892;52.080;9.006;2023-05-07T03:25:23;12.10;99.90
31263;DHT22;17892;52.080;9.006;2023-05-07T03:27:49;12.10;99.90
31263;DHT22;17892;52.080;9.006;2023-05-07T03:30:15;12.10;99.90
31263;DHT22;17892;52.080;9.006;2023-05-07T03:32:40;12.10;99.90
31263;DHT22;17892;52.080;9.006;2023-05-07T03:35:06;12.10;99.90
31263;DHT22;17892;52.080;9.006;2023-05-07T03:37:32;12.10;99.90
31263;DHT22;17892;52.080;9.006;2023-05-07T03:39:58;12.10;99.90
31263;DHT22;17892;52.080;9.006;2023-05-07T03:42:24;12.10;99.90
31263;DHT22;17892;52.080;9.006;2023-05-07T03:44:50;12.10;99.90
31263;DHT22;17892;52.080;9.006;2023-05-07T03:47:16;12.10;99.90
31263;DHT22;17892;52.080;9.006;2023-05-07T03:49:41;12.10;99.90
31263;DHT22;17892;52.080;9.006;2023-05-07T03:52:07;12.10;99.90
31263;DHT22;17892;52.080;9.006;2023-05-07T03:54:33;12.10;99.90
31263;DHT22;17892;52.080;9.006;2023-05-07T03:56:58;12.10;99.90
31263;DHT22;17892;52.080;9.006;2023-05-07T03:59:24;12.10;99.90
31263;DHT22;17892;52.080;9.006;2023-05-07T04:01:50;12.10;99.90
31263;DHT22;17892;52.080;9.006;2023-05-07T04:04:16;12.10;99.90
31263;DHT22;17892;52.080;9.006;2023-05-07T04:06:41;12.10;99.90
31263;DHT22;17892;52.080;9.006;2023-05-07T04:09:07;12.10;99.90
31263;DHT22;17892;52.080;9.006;2023-05-07T04:11:34;12.10;99.90
31263;DHT22;17892;52.080;9.006;2023-05-07T04:14:00;12.10;99.90
31263;DHT22;17892;52.080;9.006;2023-05-07T04:16:26;12.20;99.90
31263;DHT22;17892;52.080;9.006;2023-05-07T04:18:51;12.20;99.90
31263;DHT22;17892;52.080;9.006;2023-05-07T04:21:18;12.20;99.90
31263;DHT22;17892;52.080;9.006;2023-05-07T04:23:49;12.20;99.90
31263;DHT22;17892;52.080;9.006;2023-05-07T04:26:15;12.20;99.90
31263;DHT22;17892;52.080;9.006;2023-05-07T04:28:41;12.20;99.90
31263;DHT22;17892;52.080;9.006;2023-05-07T04:31:07;12.30;99.90
31263;DHT22;17892;52.080;9.006;2023-05-07T04:33:34;12.20;99.90
31263;DHT22;17892;52.080;9.006;2023-05-07T04:36:03;12.30;99.90
31263;DHT22;17892;52.080;9.006;2023-05-07T04:38:30;12.20;99.90
31263;DHT22;17892;52.080;9.006;2023-05-07T04:40:57;12.20;99.90
31263;DHT22;17892;52.080;9.006;2023-05-07T04:43:23;12.20;99.90
31263;DHT22;17892;52.080;9.006;2023-05-07T04:45:52;12.20;99.90
31263;DHT22;17892;52.080;9.006;2023-05-07T04:48:18;12.30;99.90
31263;DHT22;17892;52.080;9.006;2023-05-07T04:50:47;12.30;99.90
31263;DHT22;17892;52.080;9.006;2023-05-07T04:53:13;12.30;99.90
31263;DHT22;17892;52.080;9.006;2023-05-07T04:55:39;12.30;99.90
31263;DHT22;17892;52.080;9.006;2023-05-07T04:58:05;12.30;99.90
31263;DHT22;17892;52.080;9.006;2023-05-07T05:00:31;12.40;99.90
31263;DHT22;17892;52.080;9.006;2023-05-07T05:02:56;12.40;99.90
31263;DHT22;17892;52.080;9.006;2023-05-07T05:05:22;12.40;99.90
31263;DHT22;17892;52.080;9.006;2023-05-07T05:07:48;12.40;99.90
31263;DHT22;17892;52.080;9.006;2023-05-07T05:10:13;12.40;99.90
31263;DHT22;17892;52.080;9.006;2023-05-07T05:12:39;12.50;99.90
31263;DHT22;17892;52.080;9.006;2023-05-07T05:15:05;12.40;99.90
31263;DHT22;17892;52.080;9.006;2023-05-07T05:17:31;12.40;99.90
31263;DHT22;17892;52.080;9.006;2023-05-07T05:19:59;12.60;99.90
31263;DHT22;17892;52.080;9.006;2023-05-07T05:22:25;12.40;99.90
31263;DHT22;17892;52.080;9.006;2023-05-07T05:24:51;12.40;99.90
31263;DHT22;17892;52.080;9.006;2023-05-07T05:27:16;12.40;99.90
31263;DHT22;17892;52.080;9.006;2023-05-07T05:29:42;12.40;99.90
31263;DHT22;17892;52.080;9.006;2023-05-07T05:32:08;12.50;99.90
31263;DHT22;17892;52.080;9.006;2023-05-07T05:34:33;12.50;99.90
31263;DHT22;17892;52.080;9.006;2023-05-07T05:36:59;12.50;99.90
31263;DHT22;17892;52.080;9.006;2023-05-07T05:39:25;12.50;99.90
31263;DHT22;17892;52.080;9.006;2023-05-07T05:41:51;12.50;99.90
31263;DHT22;17892;52.080;9.006;2023-05-07T05:44:16;12.60;99.90
31263;DHT22;17892;52.080;9.006;2023-05-07T05:46:42;12.70;99.90
31263;DHT22;17892;52.080;9.006;2023-05-07T05:49:08;12.70;99.90
31263;DHT22;17892;52.080;9.006;2023-05-07T05:51:33;12.80;99.90
31263;DHT22;17892;52.080;9.006;2023-05-07T05:53:59;12.80;99.90
31263;DHT22;17892;52.080;9.006;2023-05-07T05:56:25;12.90;99.90
31263;DHT22;17892;52.080;9.006;2023-05-07T05:58:51;13.00;99.90
31263;DHT22;17892;52.080;9.006;2023-05-07T06:01:17;13.10;99.90
31263;DHT22;17892;52.080;9.006;2023-05-07T06:03:44;13.20;99.90
31263;DHT22;17892;52.080;9.006;2023-05-07T06:06:09;13.20;99.90
31263;DHT22;17892;52.080;9.006;2023-05-07T06:08:35;13.20;99.90
31263;DHT22;17892;52.080;9.006;2023-05-07T06:11:01;13.30;99.90
31263;DHT22;17892;52.080;9.006;2023-05-07T06:13:28;13.30;99.90
31263;DHT22;17892;52.080;9.006;2023-05-07T06:15:53;13.30;99.90
31263;DHT22;17892;52.080;9.006;2023-05-07T06:18:19;13.20;99.90
31263;DHT22;17892;52.080;9.006;2023-05-07T06:20:44;13.20;99.90
31263;DHT22;17892;52.080;9.006;2023-05-07T06:23:10;13.20;99.90
31263;DHT22;17892;52.080;9.006;2023-05-07T06:25:36;13.20;99.90
31263;DHT22;17892;52.080;9.006;2023-05-07T06:28:01;13.30;99.90
31263;DHT22;17892;52.080;9.006;2023-05-07T06:30:27;13.30;99.90
31263;DHT22;17892;52.080;9.006;2023-05-07T06:32:53;13.30;99.90
31263;DHT22;17892;52.080;9.006;2023-05-07T06:35:18;13.40;99.90
31263;DHT22;17892;52.080;9.006;2023-05-07T06:37:44;13.30;99.90
31263;DHT22;17892;52.080;9.006;2023-05-07T06:40:10;13.30;99.90
31263;DHT22;17892;52.080;9.006;2023-05-07T06:42:36;13.40;99.90
31263;DHT22;17892;52.080;9.006;2023-05-07T06:45:02;13.40;99.90
31263;DHT22;17892;52.080;9.006;2023-05-07T06:47:28;13.40;99.90
31263;DHT22;17892;52.080;9.006;2023-05-07T06:49:54;13.40;99.90
31263;DHT22;17892;52.080;9.006;2023-05-07T06:52:20;13.50;99.90
31263;DHT22;17892;52.080;9.006;2023-05-07T06:54:45;13.50;99.90
31263;DHT22;17892;52.080;9.006;2023-05-07T06:57:11;13.50;99.90
31263;DHT22;17892;52.080;9.006;2023-05-07T06:59:37;13.50;99.90
31263;DHT22;17892;52.080;9.006;2023-05-07T07:02:02;13.50;99.90
31263;DHT22;17892;52.080;9.006;2023-05-07T07:04:28;13.50;99.90
31263;DHT22;17892;52.080;9.006;2023-05-07T07:06:54;13.60;99.90
31263;DHT22;17892;52.080;9.006;2023-05-07T07:09:20;13.40;99.90
31263;DHT22;17892;52.080;9.006;2023-05-07T07:11:45;13.40;99.90
31263;DHT22;17892;52.080;9.006;2023-05-07T07:14:11;13.50;99.90
31263;DHT22;17892;52.080;9.006;2023-05-07T07:16:37;13.50;99.90
31263;DHT22;17892;52.080;9.006;2023-05-07T07:19:02;13.50;99.90
31263;DHT22;17892;52.080;9.006;2023-05-07T07:21:28;13.50;99.90
31263;DHT22;17892;52.080;9.006;2023-05-07T07:23:54;13.50;99.90
31263;DHT22;17892;52.080;9.006;2023-05-07T07:26:19;13.50;99.90
31263;DHT22;17892;52.080;9.006;2023-05-07T07:28:46;13.60;99.90
31263;DHT22;17892;52.080;9.006;2023-05-07T07:31:12;13.60;99.90
31263;DHT22;17892;52.080;9.006;2023-05-07T07:33:38;13.60;99.90
31263;DHT22;17892;52.080;9.006;2023-05-07T07:36:05;13.60;99.90
31263;DHT22;17892;52.080;9.006;2023-05-07T07:38:31;13.60;99.90
31263;DHT22;17892;52.080;9.006;2023-05-07T07:40:57;13.70;99.90
31263;DHT22;17892;52.080;9.006;2023-05-07T07:43:23;13.70;99.90
31263;DHT22;17892;52.080;9.006;2023-05-07T07:45:48;13.70;99.90
31263;DHT22;17892;52.080;9.006;2023-05-07T07:48:14;13.80;99.90
31263;DHT22;17892;52.080;9.006;2023-05-07T07:50:40;13.80;99.90
31263;DHT22;17892;52.080;9.006;2023-05-07T07:53:05;13.90;99.90
31263;DHT22;17892;52.080;9.006;2023-05-07T07:55:31;14.00;99.90
31263;DHT22;17892;52.080;9.006;2023-05-07T07:57:57;14.10;99.90
31263;DHT22;17892;52.080;9.006;2023-05-07T08:00:23;14.10;99.90
31263;DHT22;17892;52.080;9.006;2023-05-07T08:02:48;14.10;99.90
31263;DHT22;17892;52.080;9.006;2023-05-07T08:05:14;14.20;99.90
31263;DHT22;17892;52.080;9.006;2023-05-07T08:07:40;14.20;99.90
31263;DHT22;17892;52.080;9.006;2023-05-07T08:10:06;14.40;99.90
31263;DHT22;17892;52.080;9.006;2023-05-07T08:12:32;14.30;99.90
31263;DHT22;17892;52.080;9.006;2023-05-07T08:14:58;14.40;99.90
31263;DHT22;17892;52.080;9.006;2023-05-07T08:17:24;14.50;99.90
31263;DHT22;17892;52.080;9.006;2023-05-07T08:19:50;14.60;99.90
31263;DHT22;17892;52.080;9.006;2023-05-07T08:22:15;14.70;99.90
31263;DHT22;17892;52.080;9.006;2023-05-07T08:24:42;14.70;99.90
31263;DHT22;17892;52.080;9.006;2023-05-07T08:27:08;14.70;99.90
31263;DHT22;17892;52.080;9.006;2023-05-07T08:29:34;14.80;99.90
31263;DHT22;17892;52.080;9.006;2023-05-07T08:32:00;14.80;99.90
31263;DHT22;17892;52.080;9.006;2023-05-07T08:34:26;14.80;99.90
31263;DHT22;17892;52.080;9.006;2023-05-07T08:36:52;14.80;99.90
31263;DHT22;17892;52.080;9.006;2023-05-07T08:39:18;14.90;99.90
31263;DHT22;17892;52.080;9.006;2023-05-07T08:41:48;14.90;99.90
31263;DHT22;17892;52.080;9.006;2023-05-07T08:44:14;15.00;99.90
31263;DHT22;17892;52.080;9.006;2023-05-07T08:46:41;15.00;99.90
31263;DHT22;17892;52.080;9.006;2023-05-07T08:49:07;15.00;99.90
31263;DHT22;17892;52.080;9.006;2023-05-07T08:51:34;15.10;99.90
31263;DHT22;17892;52.080;9.006;2023-05-07T08:54:01;15.20;99.90
31263;DHT22;17892;52.080;9.006;2023-05-07T08:56:27;15.30;99.90
31263;DHT22;17892;52.080;9.006;2023-05-07T08:58:52;15.50;99.90
31263;DHT22;17892;52.080;9.006;2023-05-07T09:01:22;15.70;99.90
31263;DHT22;17892;52.080;9.006;2023-05-07T09:03:47;15.90;99.90
31263;DHT22;17892;52.080;9.006;2023-05-07T09:06:15;16.20;99.90
31263;DHT22;17892;52.080;9.006;2023-05-07T09:08:49;16.50;99.90
31263;DHT22;17892;52.080;9.006;2023-05-07T09:11:16;16.80;99.90
31263;DHT22;17892;52.080;9.006;2023-05-07T09:13:42;17.00;99.90
31263;DHT22;17892;52.080;9.006;2023-05-07T09:16:12;17.20;99.90
31263;DHT22;17892;52.080;9.006;2023-05-07T09:18:43;17.30;99.90
31263;DHT22;17892;52.080;9.006;2023-05-07T09:21:16;17.50;99.90
31263;DHT22;17892;52.080;9.006;2023-05-07T09:23:42;17.60;99.90
31263;DHT22;17892;52.080;9.006;2023-05-07T09:26:07;17.60;99.90
31263;DHT22;17892;52.080;9.006;2023-05-07T09:28:40;17.60;99.90
31263;DHT22;17892;52.080;9.006;2023-05-07T09:31:10;17.60;99.90
31263;DHT22;17892;52.080;9.006;2023-05-07T09:33:36;17.70;99.90
31263;DHT22;17892;52.080;9.006;2023-05-07T09:36:07;17.70;99.90
31263;DHT22;17892;52.080;9.006;2023-05-07T09:38:35;17.80;99.90
31263;DHT22;17892;52.080;9.006;2023-05-07T09:41:07;17.80;99.90
31263;DHT22;17892;52.080;9.006;2023-05-07T09:43:35;18.00;99.90
31263;DHT22;17892;52.080;9.006;2023-05-07T09:46:15;18.00;99.90
31263;DHT22;17892;52.080;9.006;2023-05-07T09:48:43;18.10;99.90
31263;DHT22;17892;52.080;9.006;2023-05-07T09:51:15;18.20;99.90
31263;DHT22;17892;52.080;9.006;2023-05-07T09:53:47;18.30;99.90
31263;DHT22;17892;52.080;9.006;2023-05-07T09:56:14;18.40;99.90
31263;DHT22;17892;52.080;9.006;2023-05-07T09:58:43;18.40;99.90
31263;DHT22;17892;52.080;9.006;2023-05-07T10:01:11;18.60;99.90
31263;DHT22;17892;52.080;9.006;2023-05-07T10:03:40;18.70;99.90
31263;DHT22;17892;52.080;9.006;2023-05-07T10:06:08;18.90;99.90
31263;DHT22;17892;52.080;9.006;2023-05-07T10:08:36;19.00;99.90
31263;DHT22;17892;52.080;9.006;2023-05-07T10:11:04;19.10;99.90
31263;DHT22;17892;52.080;9.006;2023-05-07T10:13:31;19.20;99.90
31263;DHT22;17892;52.080;9.006;2023-05-07T10:15:59;19.30;99.90
31263;DHT22;17892;52.080;9.006;2023-05-07T10:18:26;19.40;99.90
31263;DHT22;17892;52.080;9.006;2023-05-07T10:21:01;19.40;99.90
31263;DHT22;17892;52.080;9.006;2023-05-07T10:23:31;19.50;99.90
31263;DHT22;17892;52.080;9.006;2023-05-07T10:25:59;19.50;99.90
31263;DHT22;17892;52.080;9.006;2023-05-07T10:28:31;19.50;99.90
31263;DHT22;17892;52.080;9.006;2023-05-07T10:34:24;19.70;99.90
31263;DHT22;17892;52.080;9.006;2023-05-07T10:36:55;19.70;99.90
31263;DHT22;17892;52.080;9.006;2023-05-07T10:39:22;19.70;99.80
31263;DHT22;17892;52.080;9.006;2023-05-07T10:41:48;19.60;99.70
31263;DHT22;17892;52.080;9.006;2023-05-07T10:44:28;19.50;99.90
31263;DHT22;17892;52.080;9.006;2023-05-07T10:47:11;19.30;97.60
31263;DHT22;17892;52.080;9.006;2023-05-07T10:52:19;19.40;99.90
31263;DHT22;17892;52.080;9.006;2023-05-07T10:54:46;19.40;99.90
31263;DHT22;17892;52.080;9.006;2023-05-07T10:57:32;19.40;99.30
31263;DHT22;17892;52.080;9.006;2023-05-07T11:05:30;19.50;99.90
31263;DHT22;17892;52.080;9.006;2023-05-07T11:07:58;19.60;99.90
31263;DHT22;17892;52.080;9.006;2023-05-07T11:10:47;19.60;99.90
31263;DHT22;17892;52.080;9.006;2023-05-07T11:13:14;19.70;98.30
31263;DHT22;17892;52.080;9.006;2023-05-07T11:15:48;19.60;99.90
31263;DHT22;17892;52.080;9.006;2023-05-07T11:18:15;19.60;97.50
31263;DHT22;17892;52.080;9.006;2023-05-07T11:20:49;19.60;99.90
31263;DHT22;17892;52.080;9.006;2023-05-07T11:28:40;19.70;99.80
31263;DHT22;17892;52.080;9.006;2023-05-07T11:31:07;19.70;98.90
31263;DHT22;17892;52.080;9.006;2023-05-07T11:33:34;19.70;99.90
31263;DHT22;17892;52.080;9.006;2023-05-07T11:36:02;19.80;99.90
31263;DHT22;17892;52.080;9.006;2023-05-07T11:38:29;19.80;98.80
31263;DHT22;17892;52.080;9.006;2023-05-07T11:40:57;19.90;99.90
31263;DHT22;17892;52.080;9.006;2023-05-07T11:43:26;20.00;99.50
31263;DHT22;17892;52.080;9.006;2023-05-07T11:45:52;20.00;99.00
31263;DHT22;17892;52.080;9.006;2023-05-07T11:48:18;20.00;99.40
31263;DHT22;17892;52.080;9.006;2023-05-07T11:50:59;20.00;99.90
31263;DHT22;17892;52.080;9.006;2023-05-07T11:53:39;20.00;98.20
31263;DHT22;17892;52.080;9.006;2023-05-07T11:56:11;20.00;99.90
31263;DHT22;17892;52.080;9.006;2023-05-07T11:58:39;20.10;97.80
31263;DHT22;17892;52.080;9.006;2023-05-07T12:01:08;20.10;99.90
31263;DHT22;17892;52.080;9.006;2023-05-07T12:03:36;20.10;99.00
31263;DHT22;17892;52.080;9.006;2023-05-07T12:06:05;20.20;99.90
31263;DHT22;17892;52.080;9.006;2023-05-07T12:08:31;20.30;99.70
31263;DHT22;17892;52.080;9.006;2023-05-07T12:10:57;20.20;99.90
31263;DHT22;17892;52.080;9.006;2023-05-07T12:13:24;20.30;99.90
31263;DHT22;17892;52.080;9.006;2023-05-07T12:15:52;20.40;99.20
31263;DHT22;17892;52.080;9.006;2023-05-07T12:18:18;20.50;98.40
31263;DHT22;17892;52.080;9.006;2023-05-07T12:20:45;20.70;99.90
31263;DHT22;17892;52.080;9.006;2023-05-07T12:23:12;20.70;98.60
31263;DHT22;17892;52.080;9.006;2023-05-07T12:25:39;20.70;98.80
31263;DHT22;17892;52.080;9.006;2023-05-07T12:28:07;20.80;99.50
31263;DHT22;17892;52.080;9.006;2023-05-07T12:30:39;21.00;99.90
31263;DHT22;17892;52.080;9.006;2023-05-07T12:33:05;21.10;98.30
31263;DHT22;17892;52.080;9.006;2023-05-07T12:35:32;21.30;99.90
31263;DHT22;17892;52.080;9.006;2023-05-07T12:38:02;21.50;99.90
31263;DHT22;17892;52.080;9.006;2023-05-07T12:40:56;21.60;99.90
31263;DHT22;17892;52.080;9.006;2023-05-07T12:43:27;21.90;97.30
31263;DHT22;17892;52.080;9.006;2023-05-07T12:45:55;22.00;99.20
31263;DHT22;17892;52.080;9.006;2023-05-07T12:48:23;22.30;99.90
31263;DHT22;17892;52.080;9.006;2023-05-07T12:50:53;22.30;97.60
31263;DHT22;17892;52.080;9.006;2023-05-07T12:53:22;22.20;96.60
31263;DHT22;17892;52.080;9.006;2023-05-07T12:55:51;22.30;97.30
31263;DHT22;17892;52.080;9.006;2023-05-07T12:58:20;22.20;96.90
31263;DHT22;17892;52.080;9.006;2023-05-07T13:00:50;22.10;95.20
31263;DHT22;17892;52.080;9.006;2023-05-07T13:03:37;21.90;95.50
31263;DHT22;17892;52.080;9.006;2023-05-07T13:06:08;21.80;92.70
31263;DHT22;17892;52.080;9.006;2023-05-07T13:08:37;21.70;95.50
31263;DHT22;17892;52.080;9.006;2023-05-07T13:11:07;21.60;95.40
31263;DHT22;17892;52.080;9.006;2023-05-07T13:13:34;21.40;92.90
31263;DHT22;17892;52.080;9.006;2023-05-07T13:16:04;21.00;94.10
31263;DHT22;17892;52.080;9.006;2023-05-07T13:18:32;20.80;93.60
31263;DHT22;17892;52.080;9.006;2023-05-07T13:20:59;20.60;96.30
31263;DHT22;17892;52.080;9.006;2023-05-07T13:23:25;20.50;96.90
31263;DHT22;17892;52.080;9.006;2023-05-07T13:25:51;20.30;96.20
31263;DHT22;17892;52.080;9.006;2023-05-07T13:28:21;20.20;96.90
31263;DHT22;17892;52.080;9.006;2023-05-07T13:30:47;20.00;96.50
31263;DHT22;17892;52.080;9.006;2023-05-07T13:33:13;20.00;97.70
31263;DHT22;17892;52.080;9.006;2023-05-07T13:35:39;20.00;97.50
31263;DHT22;17892;52.080;9.006;2023-05-07T13:38:05;19.90;97.80
31263;DHT22;17892;52.080;9.006;2023-05-07T13:40:30;19.80;97.70
31263;DHT22;17892;52.080;9.006;2023-05-07T13:43:00;19.70;97.00
31263;DHT22;17892;52.080;9.006;2023-05-07T13:45:28;19.70;97.10
31263;DHT22;17892;52.080;9.006;2023-05-07T13:47:55;19.70;98.50
31263;DHT22;17892;52.080;9.006;2023-05-07T13:50:20;19.70;98.90
31263;DHT22;17892;52.080;9.006;2023-05-07T13:52:46;19.60;96.60
31263;DHT22;17892;52.080;9.006;2023-05-07T13:55:17;19.60;95.40
31263;DHT22;17892;52.080;9.006;2023-05-07T13:57:43;19.60;98.80
31263;DHT22;17892;52.080;9.006;2023-05-07T14:00:09;19.60;99.90
31263;DHT22;17892;52.080;9.006;2023-05-07T14:02:35;19.60;98.20
31263;DHT22;17892;52.080;9.006;2023-05-07T14:05:01;19.60;98.90
31263;DHT22;17892;52.080;9.006;2023-05-07T14:07:27;19.60;99.20
31263;DHT22;17892;52.080;9.006;2023-05-07T14:09:54;19.60;98.80
31263;DHT22;17892;52.080;9.006;2023-05-07T14:12:20;19.70;99.40
31263;DHT22;17892;52.080;9.006;2023-05-07T14:14:46;19.70;99.70
31263;DHT22;17892;52.080;9.006;2023-05-07T14:17:12;19.70;97.50
31263;DHT22;17892;52.080;9.006;2023-05-07T14:19:38;19.70;96.80
31263;DHT22;17892;52.080;9.006;2023-05-07T14:22:03;19.70;97.50
31263;DHT22;17892;52.080;9.006;2023-05-07T14:24:29;19.70;99.20
31263;DHT22;17892;52.080;9.006;2023-05-07T14:26:55;19.70;99.70
31263;DHT22;17892;52.080;9.006;2023-05-07T14:29:21;19.70;95.70
31263;DHT22;17892;52.080;9.006;2023-05-07T14:31:49;19.60;97.40
31263;DHT22;17892;52.080;9.006;2023-05-07T14:34:14;19.60;97.30
31263;DHT22;17892;52.080;9.006;2023-05-07T14:36:40;19.50;99.00
31263;DHT22;17892;52.080;9.006;2023-05-07T14:39:06;19.40;98.00
31263;DHT22;17892;52.080;9.006;2023-05-07T14:41:32;19.30;97.80
31263;DHT22;17892;52.080;9.006;2023-05-07T14:43:58;19.30;98.90
31263;DHT22;17892;52.080;9.006;2023-05-07T14:46:24;19.30;98.60
31263;DHT22;17892;52.080;9.006;2023-05-07T14:48:50;19.40;97.70
31263;DHT22;17892;52.080;9.006;2023-05-07T14:51:15;19.30;96.60
31263;DHT22;17892;52.080;9.006;2023-05-07T14:53:41;19.40;99.10
31263;DHT22;17892;52.080;9.006;2023-05-07T14:56:08;19.40;98.70
31263;DHT22;17892;52.080;9.006;2023-05-07T14:58:34;19.50;99.60
31263;DHT22;17892;52.080;9.006;2023-05-07T15:01:00;19.50;98.30
31263;DHT22;17892;52.080;9.006;2023-05-07T15:03:27;19.60;98.60
31263;DHT22;17892;52.080;9.006;2023-05-07T15:05:52;19.70;99.20
31263;DHT22;17892;52.080;9.006;2023-05-07T15:08:18;19.70;98.70
31263;DHT22;17892;52.080;9.006;2023-05-07T15:10:44;19.80;98.70
31263;DHT22;17892;52.080;9.006;2023-05-07T15:13:11;19.80;97.40
31263;DHT22;17892;52.080;9.006;2023-05-07T15:15:38;19.90;99.40
31263;DHT22;17892;52.080;9.006;2023-05-07T15:18:04;19.90;98.70
31263;DHT22;17892;52.080;9.006;2023-05-07T15:20:30;20.00;98.50
31263;DHT22;17892;52.080;9.006;2023-05-07T15:22:56;19.90;98.70
31263;DHT22;17892;52.080;9.006;2023-05-07T15:25:22;19.90;98.00
31263;DHT22;17892;52.080;9.006;2023-05-07T15:27:48;19.80;96.50
31263;DHT22;17892;52.080;9.006;2023-05-07T15:30:14;19.70;96.50
31263;DHT22;17892;52.080;9.006;2023-05-07T15:32:41;19.60;97.00
31263;DHT22;17892;52.080;9.006;2023-05-07T15:35:07;19.50;96.90
31263;DHT22;17892;52.080;9.006;2023-05-07T15:37:34;19.40;97.60
31263;DHT22;17892;52.080;9.006;2023-05-07T15:40:00;19.30;98.20
31263;DHT22;17892;52.080;9.006;2023-05-07T15:42:27;19.30;98.20
31263;DHT22;17892;52.080;9.006;2023-05-07T15:44:53;19.10;97.40